Time;durP1;ratioP1;P1;durP2;ratioP2;P2;SDS_P1;SDS_P2;PMS_P1;PMS_P2;Temp;Humidity;BMP_temperature;BMP_pressure;BME280_temperature;BME280_humidity;BME280_pressure;Samples;Min_cycle;Max_cycle;Signal;HPM_P1;HPM_P2
2023/06/15 00:01:06;;;;;;;6.80;5.47;;;;;;;10.10;100.00;98735.56;4158393;28;20270;-71
2023/06/15 00:03:07;;;;;;;5.63;4.93;;;;;;;10.08;100.00;98737.88;4157721;28;20107;-71
2023/06/15 00:05:08;;;;;;;8.48;5.60;;;;;;;10.08;100.00;98739.84;4158480;28;20132;-71
2023/06/15 00:07:08;;;;;;;5.68;4.93;;;;;;;10.09;100.00;98742.25;4159304;28;20067;-71
2023/06/15 00:09:08;;;;;;;7.07;5.65;;;;;;;10.13;100.00;98740.34;4158988;28;20061;-71
2023/06/15 00:11:09;;;;;;;5.70;4.68;;;;;;;10.19;100.00;98745.56;4159429;28;20048;-71
2023/06/15 00:13:09;;;;;;;6.70;5.10;;;;;;;10.25;100.00;98738.59;4157926;28;20059;-71
2023/06/15 00:15:10;;;;;;;5.53;4.90;;;;;;;10.19;100.00;98740.84;4158761;28;20420;-71
2023/06/15 00:17:11;;;;;;;6.07;5.00;;;;;;;10.11;100.00;98741.88;4159552;28;20547;-71
2023/06/15 00:19:12;;;;;;;11.13;5.45;;;;;;;10.08;100.00;98740.63;4159636;28;20256;-71
2023/06/15 00:21:13;;;;;;;10.50;4.78;;;;;;;9.98;100.00;98735.72;4158280;28;20448;-71
2023/06/15 00:23:17;;;;;;;5.95;4.80;;;;;;;9.92;100.00;98741.91;4157489;28;20120;-71
2023/06/15 00:25:17;;;;;;;7.35;5.50;;;;;;;9.88;100.00;98750.16;4158063;28;20045;-71
2023/06/15 00:27:17;;;;;;;7.85;4.85;;;;;;;9.80;100.00;98740.94;4158583;28;20484;-71
2023/06/15 00:29:18;;;;;;;6.53;5.38;;;;;;;9.73;100.00;98738.03;4158002;28;20112;-71
2023/06/15 00:31:19;;;;;;;7.03;5.43;;;;;;;9.70;100.00;98754.56;4157974;28;20187;-71
2023/06/15 00:33:19;;;;;;;7.72;4.90;;;;;;;9.68;100.00;98754.09;4157231;28;20049;-71
2023/06/15 00:35:19;;;;;;;6.25;4.80;;;;;;;9.65;100.00;98752.06;4157828;28;20103;-71
2023/06/15 00:37:20;;;;;;;9.48;5.18;;;;;;;9.69;100.00;98761.25;4158335;28;20053;-71
2023/06/15 00:39:20;;;;;;;6.78;4.90;;;;;;;9.66;100.00;98753.69;4157636;28;20040;-71
2023/06/15 00:41:21;;;;;;;6.57;4.72;;;;;;;9.66;100.00;98750.91;4158138;28;20527;-71
2023/06/15 00:43:21;;;;;;;6.00;5.03;;;;;;;9.66;100.00;98753.69;4157232;28;20037;-71
2023/06/15 00:45:21;;;;;;;5.95;4.70;;;;;;;9.66;100.00;98748.94;4157578;28;20161;-71
2023/06/15 00:47:22;;;;;;;6.78;5.18;;;;;;;9.65;100.00;98749.31;4158786;28;20099;-71
2023/06/15 00:49:22;;;;;;;6.57;5.28;;;;;;;9.65;100.00;98754.84;4160377;28;20130;-71
2023/06/15 00:51:23;;;;;;;7.10;5.40;;;;;;;9.63;100.00;98751.66;4157674;28;20045;-71
2023/06/15 00:53:24;;;;;;;8.07;5.45;;;;;;;9.61;100.00;98759.50;4157116;28;20417;-71
2023/06/15 00:55:25;;;;;;;6.57;5.00;;;;;;;9.61;100.00;98762.28;4157828;28;20041;-71
2023/06/15 00:57:25;;;;;;;7.63;5.60;;;;;;;9.57;100.00;98759.44;4157568;28;20041;-71
2023/06/15 00:59:28;;;;;;;8.75;6.55;;;;;;;9.51;100.00;98766.41;4156362;28;20518;-71
2023/06/15 01:01:28;;;;;;;;;;;;;;;9.49;100.00;98771.50;4158921;28;20053;-71
2023/06/15 01:03:30;;;;;;;6.53;5.20;;;;;;;9.46;100.00;98752.91;4158049;28;19921;-71
2023/06/15 01:05:34;;;;;;;6.83;4.93;;;;;;;9.41;100.00;98767.78;4157585;28;20280;-70
2023/06/15 01:07:35;;;;;;;6.82;5.53;;;;;;;9.42;100.00;98763.06;4158682;28;20264;-70
2023/06/15 01:09:37;;;;;;;7.28;5.85;;;;;;;9.45;100.00;98756.81;4158566;28;20678;-71
2023/06/15 01:11:38;;;;;;;7.32;5.63;;;;;;;9.44;100.00;98753.28;4158455;28;20091;-71
2023/06/15 01:13:39;;;;;;;7.03;5.40;;;;;;;9.43;100.00;98762.72;4157906;28;20037;-70
2023/06/15 01:15:40;;;;;;;6.88;5.28;;;;;;;9.38;100.00;98751.94;4157799;28;20401;-70
2023/06/15 01:17:44;;;;;;;8.70;6.57;;;;;;;9.40;100.00;98752.38;4158248;28;20100;-70
2023/06/15 01:20:04;;;;;;;8.95;5.80;;;;;;;9.42;100.00;98749.25;4158112;28;20040;-70
2023/06/15 01:22:35;;;;;;;10.48;6.78;;;;;;;9.43;100.00;98748.09;4157233;28;20112;-71
2023/06/15 01:24:37;;;;;;;10.65;6.80;;;;;;;9.48;100.00;98748.59;4157527;28;20053;-71
2023/06/15 01:26:38;;;;;;;7.97;6.32;;;;;;;9.49;100.00;98752.97;4157812;28;20045;-71
2023/06/15 01:28:44;;;;;;;7.80;6.03;;;;;;;9.50;100.00;98751.78;4157824;28;20390;-70
2023/06/15 01:36:38;;;;;;;9.77;6.75;;;;;;;9.56;100.00;98744.03;4157538;28;20063;-70
2023/06/15 01:38:39;;;;;;;9.10;6.35;;;;;;;9.53;100.00;98740.03;4157972;28;20046;-70
2023/06/15 01:40:42;;;;;;;7.20;6.50;;;;;;;9.50;100.00;98732.47;4157649;28;20446;-70
2023/06/15 01:42:44;;;;;;;9.40;7.28;;;;;;;9.54;100.00;98733.34;4157259;28;20076;-70
2023/06/15 01:44:47;;;;;;;9.30;6.03;;;;;;;9.61;100.00;98738.22;4157620;28;20081;-70
2023/06/15 01:46:47;;;;;;;11.40;7.00;;;;;;;9.67;100.00;98733.16;4157487;28;20136;-70
2023/06/15 01:48:48;;;;;;;8.98;6.50;;;;;;;9.66;100.00;98726.84;4156813;28;20084;-70
2023/06/15 01:50:49;;;;;;;7.95;6.22;;;;;;;9.70;100.00;98727.72;4158040;28;20115;-70
2023/06/15 01:52:50;;;;;;;9.55;6.32;;;;;;;9.71;100.00;98734.06;4156322;28;20080;-70
2023/06/15 01:54:50;;;;;;;7.38;6.35;;;;;;;9.70;100.00;98726.94;4157430;28;20053;-70
2023/06/15 01:56:50;;;;;;;8.65;6.32;;;;;;;9.74;100.00;98722.25;4157817;28;20045;-70
2023/06/15 01:58:51;;;;;;;9.52;6.82;;;;;;;9.68;100.00;98727.31;4157989;28;20377;-70
2023/06/15 02:00:51;;;;;;;12.15;6.70;;;;;;;9.65;100.00;98724.44;4157613;28;20474;-70
2023/06/15 02:02:51;;;;;;;10.40;6.82;;;;;;;9.62;100.00;98725.19;4156124;28;20040;-70
2023/06/15 02:04:52;;;;;;;8.75;6.85;;;;;;;9.54;100.00;98719.53;4157909;28;20060;-70
2023/06/15 02:06:52;;;;;;;8.45;6.68;;;;;;;9.55;100.00;98723.09;4157561;28;20087;-70
2023/06/15 02:08:52;;;;;;;8.23;6.22;;;;;;;9.60;100.00;98717.28;4157473;28;20045;-70
2023/06/15 02:10:53;;;;;;;8.82;6.38;;;;;;;9.63;100.00;98726.78;4157649;28;20485;-70
2023/06/15 02:12:53;;;;;;;11.23;6.70;;;;;;;9.64;100.00;98711.81;4156823;28;20124;-70
2023/06/15 02:14:54;;;;;;;12.57;6.45;;;;;;;9.65;100.00;98710.63;4157843;28;20113;-70
2023/06/15 02:16:56;;;;;;;7.88;6.30;;;;;;;9.73;100.00;98720.66;4157464;28;20152;-70
2023/06/15 02:19:00;;;;;;;7.80;6.47;;;;;;;9.71;100.00;98721.03;4157506;28;20341;-70
2023/06/15 02:21:00;;;;;;;7.20;6.35;;;;;;;9.65;100.00;98724.44;4157393;28;20061;-70
2023/06/15 02:23:02;;;;;;;9.07;6.78;;;;;;;9.62;100.00;98723.22;4156876;28;20041;-70
2023/06/15 02:25:03;;;;;;;9.00;6.18;;;;;;;9.58;100.00;98725.91;4157215;28;20091;-70
2023/06/15 02:27:03;;;;;;;10.02;6.35;;;;;;;9.53;100.00;98736.47;4158162;28;20096;-70
2023/06/15 02:29:04;;;;;;;9.20;5.80;;;;;;;9.54;100.00;98727.03;4157385;28;20075;-70
2023/06/15 02:31:04;;;;;;;8.18;5.90;;;;;;;9.54;100.00;98732.53;4157124;28;20037;-70
2023/06/15 02:33:07;;;;;;;10.98;6.20;;;;;;;9.51;100.00;98733.25;4157084;28;20447;-70
2023/06/15 02:35:11;;;;;;;6.45;5.65;;;;;;;9.45;100.00;98734.72;4157497;28;20042;-70
2023/06/15 02:37:12;;;;;;;11.07;6.00;;;;;;;9.39;100.00;98734.22;4157523;28;20542;-70
2023/06/15 02:39:12;;;;;;;9.05;6.40;;;;;;;9.20;100.00;98731.47;4157208;28;20116;-70
2023/06/15 02:41:13;;;;;;;7.32;6.40;;;;;;;9.16;100.00;98745.19;4157159;28;20121;-70
2023/06/15 02:43:13;;;;;;;8.57;6.22;;;;;;;9.13;100.00;98737.63;4156881;28;20521;-70
2023/06/15 02:45:13;;;;;;;8.15;5.95;;;;;;;9.08;100.00;98737.09;4157199;28;20088;-70
2023/06/15 02:47:14;;;;;;;8.05;6.00;;;;;;;8.99;100.00;98740.06;4156968;28;20129;-70
2023/06/15 02:49:18;;;;;;;7.60;6.10;;;;;;;8.91;100.00;98741.06;4157456;28;20057;-70
2023/06/15 02:51:19;;;;;;;10.68;6.57;;;;;;;8.86;100.00;98747.69;4157448;28;20034;-70
2023/06/15 02:53:20;;;;;;;9.85;6.68;;;;;;;8.82;100.00;98746.00;4156630;28;20136;-70
2023/06/15 02:55:21;;;;;;;13.25;7.30;;;;;;;8.79;100.00;98750.28;4156766;28;20046;-70
2023/06/15 02:57:23;;;;;;;11.45;6.72;;;;;;;8.75;100.00;98752.16;4157777;28;20049;-70
2023/06/15 02:59:25;;;;;;;10.02;7.03;;;;;;;8.70;100.00;98746.94;4157209;28;20033;-70
2023/06/15 03:01:38;;;;;;;7.65;6.22;;;;;;;8.70;100.00;98757.97;4158590;28;20049;-71
2023/06/15 03:03:40;;;;;;;;;;;;;;;8.65;100.00;98755.47;4159835;28;20048;-70
2023/06/15 03:05:40;;;;;;;6.93;5.57;;;;;;;8.64;100.00;98751.91;4160218;28;19960;-70
2023/06/15 03:07:41;;;;;;;9.05;6.50;;;;;;;8.64;100.00;98751.09;4159915;28;20276;-70
2023/06/15 03:09:41;;;;;;;8.07;6.55;;;;;;;8.63;100.00;98757.78;4160625;28;20100;-70
2023/06/15 03:11:42;;;;;;;7.55;6.40;;;;;;;8.55;100.00;98761.53;4159629;28;20030;-70
2023/06/15 03:13:42;;;;;;;7.72;6.78;;;;;;;8.49;100.00;98751.94;4159324;28;20033;-70
2023/06/15 03:15:42;;;;;;;7.80;6.40;;;;;;;8.47;100.00;98768.84;4159861;28;20044;-70
2023/06/15 03:17:43;;;;;;;9.02;6.50;;;;;;;8.47;100.00;98768.03;4160239;28;20037;-70
2023/06/15 03:19:46;;;;;;;10.02;6.20;;;;;;;8.47;100.00;98760.56;4160015;28;20602;-70
2023/06/15 03:21:47;;;;;;;9.80;7.50;;;;;;;8.44;100.00;98767.59;4159391;28;20069;-70
2023/06/15 03:23:49;;;;;;;10.30;6.63;;;;;;;8.48;100.00;98764.91;4159415;28;20045;-70
2023/06/15 03:25:49;;;;;;;7.10;6.32;;;;;;;8.54;100.00;98763.50;4159760;28;20073;-70
2023/06/15 03:27:52;;;;;;;13.02;7.15;;;;;;;8.57;100.00;98765.53;4159883;28;20413;-71
2023/06/15 03:29:54;;;;;;;8.98;6.70;;;;;;;8.63;100.00;98760.56;4159555;28;20041;-70
2023/06/15 03:31:54;;;;;;;7.00;6.05;;;;;;;8.72;100.00;98769.44;4159784;28;20144;-70
2023/06/15 03:33:55;;;;;;;8.02;6.30;;;;;;;8.74;100.00;98758.81;4158768;28;20142;-70
2023/06/15 03:35:57;;;;;;;8.48;6.78;;;;;;;8.77;100.00;98760.06;4159644;28;20884;-70
2023/06/15 03:37:57;;;;;;;9.80;6.35;;;;;;;8.83;100.00;98767.72;4159567;28;20038;-70
2023/06/15 03:39:58;;;;;;;8.68;6.63;;;;;;;8.90;100.00;98753.28;4160429;28;20453;-70
2023/06/15 03:41:58;;;;;;;8.75;6.38;;;;;;;8.98;100.00;98761.34;4159136;28;20107;-70
2023/06/15 03:43:59;;;;;;;11.38;7.18;;;;;;;9.02;100.00;98764.22;4158682;28;20049;-70
2023/06/15 03:45:59;;;;;;;10.55;7.18;;;;;;;9.08;100.00;98764.72;4159013;28;20056;-70
2023/06/15 03:48:00;;;;;;;8.48;5.88;;;;;;;9.13;100.00;98768.00;4159813;28;20500;-70
2023/06/15 03:50:00;;;;;;;10.05;7.50;;;;;;;9.21;100.00;98764.22;4159752;28;20493;-70
2023/06/15 03:52:01;;;;;;;9.90;6.28;;;;;;;9.32;100.00;98769.16;4158853;28;20517;-71
2023/06/15 03:54:01;;;;;;;8.32;6.53;;;;;;;9.36;100.00;98764.53;4158608;28;20473;-71
2023/06/15 03:56:02;;;;;;;9.57;7.15;;;;;;;9.40;100.00;98768.94;4159472;28;20025;-71
2023/06/15 03:58:03;;;;;;;8.55;7.22;;;;;;;9.42;100.00;98763.06;4159139;28;20030;-71
2023/06/15 04:00:07;;;;;;;8.32;7.03;;;;;;;9.42;100.00;98771.34;4159082;28;20021;-71
2023/06/15 04:02:07;;;;;;;8.73;6.97;;;;;;;9.46;100.00;98775.00;4157652;28;20041;-71
2023/06/15 04:04:07;;;;;;;11.13;7.72;;;;;;;9.46;100.00;98773.03;4158849;28;20033;-70
2023/06/15 04:06:08;;;;;;;8.48;6.40;;;;;;;9.47;100.00;98768.31;4158930;28;20385;-70
2023/06/15 04:08:09;;;;;;;12.95;6.97;;;;;;;9.52;100.00;98766.06;4159632;28;20036;-70
2023/06/15 04:10:10;;;;;;;9.63;6.88;;;;;;;9.61;100.00;98774.13;4158986;28;20243;-70
2023/06/15 04:12:10;;;;;;;10.50;7.20;;;;;;;9.65;100.00;98769.44;4158264;28;20025;-70
2023/06/15 04:14:12;;;;;;;8.63;6.68;;;;;;;9.74;100.00;98766.47;4158298;28;20037;-70
2023/06/15 04:16:12;;;;;;;13.20;7.03;;;;;;;9.82;100.00;98763.47;4159343;28;20044;-70
2023/06/15 04:18:12;;;;;;;10.27;6.65;;;;;;;9.90;100.00;98769.94;4158969;28;20433;-70
2023/06/15 04:20:13;;;;;;;8.45;6.97;;;;;;;9.99;100.00;98764.16;4159056;28;20116;-70
2023/06/15 04:22:14;;;;;;;9.25;6.25;;;;;;;10.07;100.00;98777.75;4158941;28;20433;-70
2023/06/15 04:24:14;;;;;;;7.05;5.75;;;;;;;10.18;100.00;98769.66;4157650;28;20087;-70
2023/06/15 04:26:17;;;;;;;6.80;6.07;;;;;;;10.27;100.00;98777.75;4158265;28;20029;-70
2023/06/15 04:28:18;;;;;;;9.20;6.60;;;;;;;10.35;100.00;98776.69;4153283;28;20419;-70
2023/06/15 04:30:18;;;;;;;10.73;6.32;;;;;;;10.43;100.00;98780.38;4158370;28;20057;-70
2023/06/15 04:32:18;;;;;;;8.90;6.47;;;;;;;10.49;100.00;98784.44;4158500;28;20365;-70
2023/06/15 04:34:19;;;;;;;7.75;6.43;;;;;;;10.56;100.00;98779.81;4157130;28;20365;-70
2023/06/15 04:36:20;;;;;;;8.55;6.45;;;;;;;10.64;100.00;98789.03;4158387;28;20031;-70
2023/06/15 04:38:21;;;;;;;10.13;6.85;;;;;;;10.69;100.00;98780.41;4154898;28;20057;-70
2023/06/15 04:40:21;;;;;;;6.85;6.15;;;;;;;10.80;100.00;98786.91;4158229;28;20037;-71
2023/06/15 04:42:23;;;;;;;10.43;7.30;;;;;;;10.87;100.00;98789.00;4157683;28;20304;-71
2023/06/15 04:44:23;;;;;;;8.80;6.53;;;;;;;10.94;100.00;98787.13;4157844;28;20041;-71
2023/06/15 04:46:24;;;;;;;10.50;7.13;;;;;;;11.05;100.00;98786.47;4157807;28;20045;-70
2023/06/15 04:48:27;;;;;;;8.85;6.68;;;;;;;11.13;100.00;98788.97;4157863;28;20072;-70
2023/06/15 04:50:30;;;;;;;9.60;6.57;;;;;;;11.17;100.00;98789.00;4158540;28;20450;-70
2023/06/15 04:52:30;;;;;;;7.80;6.57;;;;;;;11.25;100.00;98793.47;4170426;28;20041;-70
2023/06/15 04:54:30;;;;;;;8.82;6.70;;;;;;;11.34;100.00;98793.22;4157537;28;20073;-70
2023/06/15 04:56:30;;;;;;;10.30;6.85;;;;;;;11.44;100.00;98800.88;4157738;28;20060;-70
2023/06/15 04:58:31;;;;;;;9.18;7.10;;;;;;;11.50;100.00;98791.88;4158013;28;20139;-70
2023/06/15 05:00:31;;;;;;;9.02;6.53;;;;;;;11.62;100.00;98788.03;4157733;28;20471;-70
2023/06/15 05:02:31;;;;;;;10.02;6.30;;;;;;;11.77;100.00;98794.56;4157218;28;20080;-70
2023/06/15 05:04:32;;;;;;;9.23;6.85;;;;;;;11.90;100.00;98792.34;4157323;28;20076;-70
2023/06/15 05:06:32;;;;;;;9.15;6.18;;;;;;;12.05;100.00;98791.31;4132706;28;20124;-71
2023/06/15 05:08:33;;;;;;;8.45;6.22;;;;;;;12.20;100.00;98789.50;4165642;28;20034;-71
2023/06/15 05:10:33;;;;;;;6.43;5.50;;;;;;;12.33;100.00;98790.84;4157351;28;20073;-71
2023/06/15 05:12:33;;;;;;;9.45;6.95;;;;;;;12.48;100.00;98795.31;4156488;28;20486;-71
2023/06/15 05:14:33;;;;;;;8.45;6.38;;;;;;;12.59;100.00;98796.22;4156314;28;20470;-71
2023/06/15 05:16:34;;;;;;;10.85;7.05;;;;;;;12.68;100.00;98793.13;4156806;28;20065;-71
2023/06/15 05:18:34;;;;;;;9.32;6.63;;;;;;;12.76;100.00;98789.22;4157394;28;20411;-71
2023/06/15 05:20:34;;;;;;;8.93;6.43;;;;;;;12.88;100.00;98799.19;4157413;28;20076;-71
2023/06/15 05:22:35;;;;;;;7.90;7.10;;;;;;;12.95;100.00;98802.03;4156812;28;20037;-71
2023/06/15 05:24:35;;;;;;;7.57;6.63;;;;;;;13.09;100.00;98798.56;4157022;28;20099;-71
2023/06/15 05:26:36;;;;;;;7.35;6.53;;;;;;;13.21;100.00;98789.94;4157643;28;20038;-71
2023/06/15 05:28:36;;;;;;;8.50;6.80;;;;;;;13.33;100.00;98803.50;4158025;28;20075;-71
2023/06/15 05:30:36;;;;;;;7.07;6.25;;;;;;;13.47;100.00;98798.00;4157990;28;20046;-71
2023/06/15 05:32:38;;;;;;;6.07;5.47;;;;;;;13.61;100.00;98805.63;4157053;28;20072;-71
2023/06/15 05:34:39;;;;;;;17.27;6.68;;;;;;;13.74;100.00;98800.53;4157535;28;20107;-71
2023/06/15 05:36:39;;;;;;;10.73;6.93;;;;;;;13.87;100.00;98798.19;4157299;28;20065;-71
2023/06/15 05:38:39;;;;;;;7.72;6.47;;;;;;;13.95;100.00;98795.03;4156812;28;20103;-71
2023/06/15 05:40:40;;;;;;;7.82;6.22;;;;;;;14.05;100.00;98805.38;4155876;28;20050;-71
2023/06/15 05:42:40;;;;;;;13.00;6.85;;;;;;;14.09;100.00;98794.28;4156315;28;20534;-71
2023/06/15 05:44:40;;;;;;;7.80;6.30;;;;;;;14.14;100.00;98795.88;4157576;28;20332;-71
2023/06/15 05:46:41;;;;;;;9.32;6.75;;;;;;;14.17;100.00;98795.88;4156802;28;20077;-71
2023/06/15 05:48:42;;;;;;;10.55;6.90;;;;;;;14.27;100.00;98797.09;4156987;28;20039;-71
2023/06/15 05:50:42;;;;;;;13.23;7.80;;;;;;;14.36;100.00;98803.06;4157544;28;20465;-71
2023/06/15 05:52:42;;;;;;;9.02;6.85;;;;;;;14.40;100.00;98806.66;4156380;28;20045;-71
2023/06/15 05:54:45;;;;;;;8.95;6.38;;;;;;;14.46;100.00;98807.88;4157196;28;20087;-71
2023/06/15 05:56:45;;;;;;;12.35;7.00;;;;;;;14.45;100.00;98797.13;4156999;28;20037;-71
2023/06/15 05:58:45;;;;;;;11.30;6.53;;;;;;;14.50;100.00;98803.13;4158123;28;20168;-71
2023/06/15 06:00:46;;;;;;;8.15;6.00;;;;;;;14.52;100.00;98800.72;4157641;28;20048;-71
2023/06/15 06:02:46;;;;;;;6.72;6.03;;;;;;;14.54;100.00;98803.91;4157061;28;20881;-71
2023/06/15 06:04:46;;;;;;;7.97;6.20;;;;;;;14.55;100.00;98797.16;4158081;28;20081;-71
2023/06/15 06:06:48;;;;;;;8.70;6.22;;;;;;;14.53;100.00;98807.09;4157527;28;20071;-71
2023/06/15 06:08:49;;;;;;;8.38;6.65;;;;;;;14.56;100.00;98809.91;4157956;28;20042;-71
2023/06/15 06:10:49;;;;;;;8.40;6.60;;;;;;;14.59;100.00;98809.09;4157693;28;20084;-71
2023/06/15 06:12:50;;;;;;;8.85;6.88;;;;;;;14.67;100.00;98806.31;4157864;28;20262;-71
2023/06/15 06:14:50;;;;;;;8.57;6.68;;;;;;;14.67;100.00;98815.47;4158261;28;20053;-71
2023/06/15 06:16:50;;;;;;;12.52;7.65;;;;;;;14.75;100.00;98807.91;4157548;28;20381;-71
2023/06/15 06:18:51;;;;;;;11.68;6.93;;;;;;;14.83;100.00;98810.28;4156746;28;20056;-71
2023/06/15 06:20:51;;;;;;;8.80;7.18;;;;;;;14.88;100.00;98806.31;4157640;28;20099;-71
2023/06/15 06:22:51;;;;;;;8.30;6.63;;;;;;;14.96;100.00;98809.88;4155424;28;20034;-71
2023/06/15 06:24:52;;;;;;;9.00;6.78;;;;;;;15.08;100.00;98801.13;4149891;28;20079;-71
2023/06/15 06:26:53;;;;;;;8.13;6.47;;;;;;;15.15;100.00;98812.25;4154873;28;20042;-71
2023/06/15 06:28:53;;;;;;;6.60;5.97;;;;;;;15.22;100.00;98812.22;4154594;28;20151;-70
2023/06/15 06:30:53;;;;;;;8.48;6.05;;;;;;;15.27;99.26;98811.84;4155456;28;20034;-71
2023/06/15 06:32:54;;;;;;;9.85;6.07;;;;;;;15.33;99.11;98820.59;4151556;28;20086;-70
2023/06/15 06:34:54;;;;;;;6.80;5.57;;;;;;;15.41;99.22;98819.38;4155716;28;20111;-71
2023/06/15 06:36:55;;;;;;;9.20;5.68;;;;;;;15.49;99.46;98811.78;4156987;28;20045;-71
2023/06/15 06:38:55;;;;;;;7.90;5.05;;;;;;;15.58;98.09;98810.16;4156661;28;20088;-71
2023/06/15 06:40:56;;;;;;;9.27;6.38;;;;;;;15.65;98.49;98810.16;4158945;28;20139;-71
2023/06/15 06:42:56;;;;;;;10.13;5.93;;;;;;;15.80;97.75;98813.69;4159469;28;20412;-71
2023/06/15 06:44:57;;;;;;;9.07;6.03;;;;;;;15.90;95.89;98812.06;4160740;28;20042;-71
2023/06/15 06:46:57;;;;;;;12.05;5.82;;;;;;;15.99;96.95;98813.22;4158797;28;20061;-71
2023/06/15 06:48:57;;;;;;;8.52;5.50;;;;;;;16.12;96.94;98813.53;4159161;28;20440;-71
2023/06/15 06:50:58;;;;;;;8.35;5.85;;;;;;;16.17;94.93;98817.91;4160220;28;20317;-71
2023/06/15 06:52:58;;;;;;;11.10;5.80;;;;;;;16.17;95.47;98815.91;4159711;28;20034;-71
2023/06/15 06:54:58;;;;;;;11.93;5.68;;;;;;;16.24;95.63;98817.88;4159621;28;20095;-71
2023/06/15 06:56:59;;;;;;;7.20;5.53;;;;;;;16.23;93.35;98813.50;4159739;28;20041;-71
2023/06/15 06:59:00;;;;;;;7.50;5.72;;;;;;;16.31;92.58;98823.41;4160407;28;20037;-71
2023/06/15 07:01:00;;;;;;;9.73;5.38;;;;;;;16.35;90.89;98804.63;4159815;28;20045;-71
2023/06/15 07:03:00;;;;;;;8.60;5.38;;;;;;;16.35;91.04;98815.78;4157561;28;20474;-71
2023/06/15 07:05:01;;;;;;;11.82;6.05;;;;;;;16.39;89.82;98816.59;4159104;28;20057;-71
2023/06/15 07:07:01;;;;;;;9.45;5.18;;;;;;;16.50;91.15;98824.88;4159393;28;20095;-71
2023/06/15 07:09:01;;;;;;;6.07;5.47;;;;;;;16.58;89.84;98820.84;4158820;28;20091;-71
2023/06/15 07:11:02;;;;;;;8.77;5.35;;;;;;;16.66;90.36;98821.59;4160027;28;20429;-71
2023/06/15 07:13:02;;;;;;;6.53;5.38;;;;;;;16.67;89.56;98807.19;4157416;28;20210;-71
2023/06/15 07:15:03;;;;;;;8.98;5.35;;;;;;;16.79;90.21;98817.09;4150234;28;20043;-71
2023/06/15 07:17:03;;;;;;;8.48;5.43;;;;;;;16.86;88.15;98819.84;4150662;28;20038;-71
2023/06/15 07:19:03;;;;;;;6.00;5.10;;;;;;;16.90;88.38;98814.25;4152702;28;21505;-71
2023/06/15 07:21:04;;;;;;;7.72;5.55;;;;;;;16.92;89.29;98811.81;4148192;28;20050;-71
2023/06/15 07:23:04;;;;;;;9.57;5.47;;;;;;;16.97;89.23;98814.19;4152259;28;20129;-71
2023/06/15 07:25:05;;;;;;;6.63;5.65;;;;;;;17.04;91.24;98806.50;4151109;28;20077;-71
2023/06/15 07:27:05;;;;;;;7.43;5.40;;;;;;;17.16;90.35;98812.81;4152814;28;20049;-71
2023/06/15 07:29:06;;;;;;;9.80;5.55;;;;;;;17.20;90.04;98807.97;4156499;28;20107;-71
2023/06/15 07:31:06;;;;;;;5.97;5.20;;;;;;;17.30;89.52;98809.88;4151616;28;20164;-71
2023/06/15 07:33:06;;;;;;;10.30;5.43;;;;;;;17.39;89.88;98804.59;4155885;28;20467;-71
2023/06/15 07:35:07;;;;;;;6.78;5.38;;;;;;;17.45;88.75;98814.09;4157789;28;20045;-71
2023/06/15 07:37:07;;;;;;;9.05;5.10;;;;;;;17.50;89.12;98818.44;4155816;28;20056;-71
2023/06/15 07:39:08;;;;;;;6.47;5.28;;;;;;;17.44;88.57;98820.88;4150984;28;20053;-71
2023/06/15 07:41:08;;;;;;;6.28;4.88;;;;;;;17.56;89.30;98811.19;4153120;28;20571;-71
2023/06/15 07:43:09;;;;;;;8.45;5.50;;;;;;;17.73;89.11;98815.03;4155985;28;20509;-71
2023/06/15 07:45:10;;;;;;;6.97;5.30;;;;;;;17.67;87.14;98811.84;4159342;28;20531;-71
2023/06/15 07:47:10;;;;;;;9.20;5.40;;;;;;;17.68;88.09;98813.44;4157859;28;20038;-71
2023/06/15 07:49:10;;;;;;;6.50;5.35;;;;;;;17.71;87.08;98812.66;4158743;28;20377;-71
2023/06/15 07:51:11;;;;;;;12.48;4.80;;;;;;;17.84;89.86;98810.06;4159094;28;20715;-71
2023/06/15 07:53:11;;;;;;;6.65;4.95;;;;;;;17.96;88.79;98818.72;4158510;28;20594;-71
2023/06/15 07:55:11;;;;;;;6.55;5.82;;;;;;;18.00;87.03;98813.06;4158130;28;20033;-71
2023/06/15 07:57:12;;;;;;;8.93;5.13;;;;;;;18.00;84.33;98809.47;4159479;28;20052;-71
2023/06/15 07:59:12;;;;;;;8.32;5.65;;;;;;;17.99;83.20;98813.50;4159432;28;20049;-71
2023/06/15 08:01:12;;;;;;;5.82;4.57;;;;;;;18.01;80.90;98817.44;4158825;28;20041;-71
2023/06/15 08:03:13;;;;;;;6.65;5.07;;;;;;;17.94;81.08;98812.72;4159148;28;20072;-71
2023/06/15 08:05:13;;;;;;;5.57;4.28;;;;;;;18.00;78.79;98810.28;4158490;28;20108;-71
2023/06/15 08:07:13;;;;;;;7.25;4.70;;;;;;;18.04;79.47;98810.22;4149827;28;20571;-71
2023/06/15 08:09:14;;;;;;;5.88;4.45;;;;;;;18.09;79.46;98804.94;4150066;28;20133;-71
2023/06/15 08:11:16;;;;;;;7.63;4.82;;;;;;;18.19;79.34;98814.41;4157802;28;20067;-71
2023/06/15 08:13:18;;;;;;;6.63;4.82;;;;;;;18.25;79.21;98807.13;4157710;28;20052;-71
2023/06/15 08:15:19;;;;;;;7.13;3.97;;;;;;;18.31;77.99;98796.25;4158490;28;20052;-71
2023/06/15 08:17:19;;;;;;;8.20;4.88;;;;;;;18.33;77.82;98802.22;4158874;28;20041;-71
2023/06/15 08:19:20;;;;;;;6.80;4.35;;;;;;;18.37;74.88;98800.97;4161607;28;20080;-71
2023/06/15 08:21:20;;;;;;;8.35;4.25;;;;;;;18.41;74.09;98796.09;4157015;28;20034;-71
2023/06/15 08:23:21;;;;;;;7.53;4.68;;;;;;;18.52;74.15;98796.72;4158613;28;20069;-71
2023/06/15 08:25:22;;;;;;;5.10;3.90;;;;;;;18.66;72.18;98794.94;4158988;28;20057;-71
2023/06/15 08:27:22;;;;;;;10.50;4.43;;;;;;;18.67;71.20;98793.72;4157711;28;20047;-70
2023/06/15 08:29:23;;;;;;;9.13;4.20;;;;;;;18.71;72.22;98789.66;4157791;28;20241;-71
2023/06/15 08:31:23;;;;;;;4.72;3.60;;;;;;;18.73;73.22;98789.22;4158184;28;20033;-71
2023/06/15 08:33:23;;;;;;;7.95;3.78;;;;;;;18.80;71.61;98780.72;4157622;28;20044;-71
2023/06/15 08:35:24;;;;;;;5.88;3.33;;;;;;;18.97;68.12;98795.66;4157774;28;20053;-71
2023/06/15 08:37:24;;;;;;;6.45;3.42;;;;;;;18.94;67.35;98786.06;4157781;28;20053;-71
2023/06/15 08:39:25;;;;;;;9.05;3.88;;;;;;;18.87;65.05;98791.00;4158304;28;20083;-71
2023/06/15 08:41:28;;;;;;;6.55;3.40;;;;;;;18.94;62.16;98790.88;4158224;28;20132;-71
2023/06/15 08:43:32;;;;;;;5.25;3.08;;;;;;;18.91;63.22;98784.13;4158060;28;20041;-71
2023/06/15 08:45:40;;;;;;;8.75;3.70;;;;;;;18.92;65.11;98777.28;4159081;28;20061;-71
2023/06/15 08:47:41;;;;;;;4.95;3.50;;;;;;;18.94;65.08;98783.25;4158390;28;20535;-71
2023/06/15 08:49:41;;;;;;;5.05;3.40;;;;;;;19.01;65.60;98779.53;4158373;28;20333;-71
2023/06/15 08:51:42;;;;;;;4.68;3.05;;;;;;;19.09;63.46;98764.97;4158843;28;20095;-71
2023/06/15 08:53:44;;;;;;;9.60;3.42;;;;;;;19.25;65.68;98783.91;4157565;28;20041;-71
2023/06/15 08:55:45;;;;;;;4.37;2.73;;;;;;;19.42;62.20;98781.97;4158612;28;20041;-71
2023/06/15 08:57:46;;;;;;;6.30;3.30;;;;;;;19.38;62.04;98784.06;4158824;28;20283;-70
2023/06/15 08:59:46;;;;;;;7.43;3.60;;;;;;;19.40;61.41;98778.81;4158264;28;20157;-71
2023/06/15 09:01:47;;;;;;;4.30;3.10;;;;;;;19.47;62.60;98784.31;4158590;28;20433;-71
2023/06/15 09:03:52;;;;;;;9.75;3.78;;;;;;;19.55;63.68;98782.16;4157617;28;20094;-71
2023/06/15 09:05:52;;;;;;;5.88;3.65;;;;;;;19.61;63.28;98775.63;4158402;28;20301;-71
2023/06/15 09:07:53;;;;;;;4.40;3.50;;;;;;;19.70;63.91;98780.69;4158381;28;20046;-71
2023/06/15 09:10:12;;;;;;;5.65;3.38;;;;;;;19.77;62.33;98785.31;4158243;28;20424;-71
2023/06/15 09:12:18;;;;;;;9.10;3.60;;;;;;;19.79;62.59;98777.28;4141618;28;20124;-71
2023/06/15 09:14:19;;;;;;;9.18;3.10;;;;;;;19.77;62.26;98782.50;4141823;28;20092;-71
2023/06/15 09:16:19;;;;;;;16.48;3.85;;;;;;;19.77;62.77;98774.09;4141820;28;20021;-71
2023/06/15 09:18:20;;;;;;;6.03;3.50;;;;;;;19.72;62.55;98783.03;4141714;28;20021;-71
2023/06/15 09:20:25;;;;;;;11.55;3.65;;;;;;;19.69;61.17;98772.66;4141578;28;20072;-71
2023/06/15 09:22:26;;;;;;;6.75;3.17;;;;;;;19.70;61.07;98774.28;4141824;28;20168;-71
2023/06/15 09:24:27;;;;;;;6.18;3.65;;;;;;;19.77;62.17;98768.47;4141001;28;20170;-71
2023/06/15 09:26:27;;;;;;;7.85;2.90;;;;;;;19.71;60.71;98770.22;4141877;28;20033;-71
2023/06/15 09:28:28;;;;;;;5.53;3.30;;;;;;;19.70;61.10;98765.84;4141806;28;20382;-71
2023/06/15 09:30:34;;;;;;;4.63;3.55;;;;;;;19.79;59.05;98769.66;4141918;28;20080;-71
2023/06/15 09:32:34;;;;;;;6.20;3.40;;;;;;;19.91;59.85;98760.56;4141268;28;20049;-71